Piney Fork, OH (43941)

2:28 AM EST on March 05, 2015 (GMT -0500)
Upland Heights | Change Station
CLOSE
Current Station
Personal Weather Station
Location: Rayland, OH
Elevation: 1089 ft
Nearby Weather Stations

Elev 1089 ft 40.16 °N, 80.72 °W | Updated 5 minutes ago

Snow
Snow
24.6 °F
Feels Like 20 °F
N
3.7
Wind Variable Wind from West

Today
High -- | Low -- °F
--% Chance of Precip.
Yesterday
High -- | Low -- °F
Precip. -- in
6:51 AM 6:19 PM
Full, 100% visible
Pressure 30.16 in
Visibility 1.8 miles
Clouds Overcast 2200 ft
Windchill 20 °F
Dew Point 23 °F
Humidity 95%
Rainfall in
Snow Depth Not available.
UV 0 out of 12
Pollen .60 out of 12
Air Quality Not available.
Flu Activity Not available.
METAR KHLG 050653Z AUTO 32006KT 1 3/4SM -SN BR OVC022 M04/M06 A3010 RMK AO2 SLP211 P0001 T10441061

More Conditions Fewer Conditions

Pressure 30.16 in
Visibility 1.8 miles
Clouds Overcast 2200 ft
Windchill 20 °F
Dew Point 23 °F
Humidity 95%
Rainfall in
Snow Depth Not available.
UV 0 out of 12
Pollen .60 out of 12
Air Quality Not available.
Flu Activity Not available.
METAR KHLG 050653Z AUTO 32006KT 1 3/4SM -SN BR OVC022 M04/M06 A3010 RMK AO2 SLP211 P0001 T10441061

More Conditions Fewer Conditions

10-Day Weather Forecast

Almanac

Astronomy

Mar. 05, 2015 Rise Set
Actual Time
Civil Twilight
Nautical Twilight
Astronomical Twilight
Moon
Length of Visible Light
Length of Day
Tomorrow will be .
, % of the Moon is Illuminated

Today's Extremes

State Highs State Lows

Community

WunderPhotos

Upload Photos

1,802,689 photos uploaded!

WunderBlogs® & News

Nearby

Air Quality

  Air Quality AQ Index Pollutant
Not available.

Snow Depth

Station Depth Elevation

Earthquake Activity

City Distance Mag. Time & Date
Minimum magnitude displayed is 2.5.

Coastal Water Temperatures

Place Temperature

Nearby Weather Stations

Winter Weather Advisory
Statement as of 9:34 PM EST on March 04, 2015

... Winter Weather Advisory remains in effect until 4 PM EST
Thursday...

* snow accumulations... 2 to 4 inches.

* Period of most intense snow... overnight.

* Snow ending... by Thursday afternoon.

* Impacts... hazardous travel conditions are expected due to snow
accumulation.

Precautionary/preparedness actions...

A Winter Weather Advisory for snow means that snowfall will cause
travel difficulties. Report snow accumulation to the National
Weather Service by calling 412-262-1988... posting to the NWS
Pittsburgh facebook Page... or using twitter @nwspittsburgh.